LFRZLFRS

Guest
Details From LFRZ - Saint Nazaire Montoir
To LFRS - Nantes_Atlantique
Flight Number -
Tags generated
Created
Modified
Stats Distance 24 nm / 44 km
Max Altitude 0 ft / 0 m
Waypoints 3
Social Downloads 2
Likes 0
Share VATSIM

Download

Looking for another format? Having issues loading an existing format? Contact us
Advertisement - Login to hide

Notes

Basic altitude profile: - Ascent Rate: 2500ft/min - Ascent Speed: 250kts - Cruise Altitude: 35000ft - Cruise Speed: 420kts - Descent Rate: 1500ft/min - Descent Speed: 250kts Options: - Use NATs: yes - Use PACOTS: yes - Use low airways: yes - Use high airways: yes

Route

LFRZ NTS LFRS

ID Type Via Altitude Latitude Longitude Leg Dist Tot Dist Heading (true) Name
O LFRZ APT - 0 ft / 0 m 47.31219˚ -2.14918˚ - 0 nm - Saint Nazaire Montoir
NTS VOR - 0 ft / 0 m 47.16086˚ -1.61296˚ 23 nm 23 nm 112° / 113° NANTES ATLANTIQUE VOR-DME
O LFRS APT - 0 ft / 0 m 47.15604˚ -1.61119˚ 0 nm 23 nm 166° / 166° Nantes_Atlantique

Altitude Profile

Advertisement - Login to hide

LFRZ

Details ICAO LFRZ (SNR)
Name Saint Nazaire Montoir
Region France
Timezone Europe/Paris (UTC+2.0)
Stats Elevation 13 ft / 4 m (AMSL)
Location 47.312188° -2.149179°
Runways 1
Magnetic Variation 0.635° W

METAR

LFRZ 272200Z AUTO 28005KT CAVOK 16/14 Q1016 NOSIG

Decode

TAF

TAF LFRZ 271700Z 2718/2818 32007KT 9999 SCT030 TEMPO 2802/2807 3000 BR BKN003 PROB30 TEMPO 2814/2818 VRB15G30KT 3000 TSRA BKN025CB

Decode

Departure Runways

ID Width Length Bearing (true) Bearing (mag) Surface Threshold Offset Overrun Length
08 148 ft / 45 m 7,872 ft / 2,400 m 73.42° 74.06° Asphalt 500 ft / 152 m 0 ft / 0 m
26 148 ft / 45 m 7,872 ft / 2,400 m 253.44° 254.08° Asphalt 500 ft / 152 m 0 ft / 0 m

LFRS

Details ICAO LFRS (NTE)
Name Nantes_Atlantique
Region France
Timezone Europe/Paris (UTC+2.0)
Stats Elevation 89 ft / 27 m (AMSL)
Location 47.156040° -1.611186°
Runways 2
Magnetic Variation 0.450° W

METAR

LFRS 272200Z AUTO 27003KT CAVOK 14/13 Q1016 NOSIG

Decode

TAF

TAF LFRS 271700Z 2718/2824 32006KT 9999 SCT030 TEMPO 2803/2806 3000 BR BKN004 PROB30 TEMPO 2813/2824 VRB15G30KT 3000 TSRA BKN025CB

Decode

Destination Runways

ID Width Length Bearing (true) Bearing (mag) Surface Threshold Offset Overrun Length
03 148 ft / 45 m 9,526 ft / 2,903 m 27.35° 27.80° Asphalt 0 ft / 0 m 0 ft / 0 m
13 100 ft / 30 m 1,999 ft / 609 m 125.55° 126.00° Concrete 0 ft / 0 m 0 ft / 0 m
21 148 ft / 45 m 9,526 ft / 2,903 m 207.37° 207.82° Asphalt 689 ft / 210 m 0 ft / 0 m
31 100 ft / 30 m 1,999 ft / 609 m 305.56° 306.01° Concrete 0 ft / 0 m 0 ft / 0 m

Approach Navaids

Runway Type Ident Frequency Range Bearing (true) Bearing (mag) Slope Elevation
03 Localiser NT 109.90 MHz 27 nm / 50 km 27.42° 27.87° - 89 ft / 27 m (AMSL)
03 Glidescope NT 109.90 MHz 27 nm / 50 km 27.42° 27.87° 3.00° 89 ft / 27 m (AMSL)
03 DME NT 109.90 MHz 27 nm / 50 km - - - 89 ft / 27 m (AMSL)

Popular Alternatives